.
WxDataArchive / Data Records for 2016-04-27
2016-04-26 April 2016 2016-04-28

Data Records for Wednesday, 27 April 2016

Time	Temp	Chill	HIndex	Humid	Dewpt	 Wind 	HiWind	WindDir	Rain 	Barom
-----	----	-----	------	-----	-----	------	------	-------	-----	-----
00:00	48.8	48.8	48.8	82	43.6	3	7	90	0.00	29.877 
00:05	48.8	48.8	48.8	83	43.9	2	5	90	0.00	29.877 
00:10	48.6	48.6	48.6	83	43.7	3	6	90	0.00	29.877 
00:15	48.6	48.6	48.6	83	43.7	1	5	112	0.00	29.876 
00:20	48.5	48.5	48.5	83	43.6	2	6	90	0.00	29.876 
00:25	48.2	48.2	48.2	84	43.6	3	7	90	0.00	29.876 
00:30	47.9	47.9	47.9	84	43.3	3	6	90	0.00	29.868 
00:35	47.7	47.7	47.7	84	43.1	3	6	112	0.00	29.868 
00:40	47.4	47.4	47.4	84	42.8	3	12	112	0.00	29.868 
00:45	47.3	47.3	47.3	85	43.0	2	6	90	0.00	29.878 
00:50	47.0	47.0	47.0	85	42.7	3	7	90	0.00	29.878 
00:55	47.0	47.0	47.0	85	42.7	3	7	90	0.00	29.878 
01:00	47.0	47.0	47.0	85	42.7	2	10	90	0.00	29.878 
01:05	46.8	45.2	46.8	85	42.5	4	10	90	0.00	29.878 
01:10	46.8	46.8	46.8	85	42.5	3	10	90	0.00	29.878 
01:15	46.8	46.8	46.8	85	42.5	2	7	90	0.00	29.890 
01:20	46.8	46.8	46.8	85	42.5	3	7	90	0.00	29.890 
01:25	46.7	46.7	46.7	85	42.4	3	7	112	0.00	29.890 
01:30	46.7	46.7	46.7	85	42.4	3	10	112	0.00	29.881 
01:35	46.5	44.8	46.5	86	42.5	4	7	90	0.00	29.881 
01:40	46.4	46.4	46.4	86	42.4	2	6	90	0.00	29.881 
01:45	46.4	46.4	46.4	87	42.7	1	6	90	0.00	29.881 
01:50	46.4	46.4	46.4	87	42.7	1	6	90	0.00	29.881 
01:55	46.2	46.2	46.2	87	42.5	2	10	90	0.00	29.881 
02:00	46.2	46.2	46.2	87	42.5	1	7	112	0.00	29.882 
02:05	46.2	46.2	46.2	87	42.5	2	6	90	0.00	29.882 
02:10	46.1	46.1	46.1	87	42.4	2	5	90	0.00	29.882 
02:15	46.1	46.1	46.1	87	42.4	3	7	90	0.00	29.884 
02:20	46.0	46.0	46.0	87	42.4	3	7	68	0.00	29.884 
02:25	46.0	46.0	46.0	86	42.0	2	7	112	0.00	29.884 
02:30	45.8	44.0	45.8	86	41.9	4	8	112	0.00	29.872 
02:35	45.8	45.8	45.8	86	41.9	2	4	90	0.00	29.872 
02:40	45.8	45.8	45.8	85	41.6	2	7	90	0.00	29.872 
02:45	45.8	45.8	45.8	85	41.6	3	8	90	0.00	29.868 
02:50	45.8	45.8	45.8	85	41.6	3	10	90	0.00	29.868 
02:55	45.7	45.7	45.7	85	41.5	3	7	112	0.00	29.868 
03:00	45.5	43.7	45.5	85	41.3	4	7	112	0.00	29.877 
03:05	45.5	45.5	45.5	85	41.3	3	7	112	0.00	29.877 
03:10	45.4	45.4	45.4	86	41.5	3	6	90	0.00	29.877 
03:15	45.4	45.4	45.4	86	41.5	2	6	90	0.00	29.881 
03:20	45.2	45.2	45.2	86	41.3	3	6	90	0.00	29.881 
03:25	45.1	45.1	45.1	87	41.5	2	6	90	0.00	29.881 
03:30	44.9	44.9	44.9	87	41.3	2	7	112	0.00	29.872 
03:35	44.9	44.9	44.9	87	41.3	3	7	112	0.00	29.872 
03:40	44.8	44.8	44.8	87	41.2	3	7	112	0.00	29.872 
03:45	44.8	44.8	44.8	87	41.2	3	7	112	0.00	29.882 
03:50	44.8	44.8	44.8	87	41.2	2	6	112	0.00	29.882 
03:55	44.8	44.8	44.8	88	41.5	2	6	90	0.00	29.882 
04:00	44.8	44.8	44.8	88	41.5	2	10	112	0.00	29.886 
04:05	44.8	44.8	44.8	88	41.5	2	6	112	0.00	29.886 
04:10	44.6	44.6	44.6	88	41.3	2	5	112	0.00	29.886 
04:15	44.6	44.6	44.6	88	41.3	1	4	112	0.00	29.898 
04:20	44.6	44.6	44.6	88	41.3	2	6	112	0.00	29.898 
04:25	44.6	44.6	44.6	88	41.3	1	4	112	0.00	29.898 
04:30	44.5	44.5	44.5	88	41.2	2	6	90	0.00	29.889 
04:35	44.5	44.5	44.5	88	41.2	2	7	112	0.00	29.889 
04:40	44.3	44.3	44.3	88	41.0	2	9	90	0.00	29.889 
04:45	44.2	44.2	44.2	89	41.2	1	5	90	0.00	29.886 
04:50	44.2	44.2	44.2	88	40.9	1	6	112	0.00	29.886 
04:55	44.2	44.2	44.2	88	40.9	1	5	112	0.00	29.886 
05:00	44.1	44.1	44.1	88	40.8	1	5	45	0.00	29.890 
05:05	44.1	44.1	44.1	88	40.8	2	7	112	0.00	29.890 
05:10	44.1	44.1	44.1	88	40.8	1	5	112	0.00	29.890 
05:15	44.1	44.1	44.1	88	40.8	1	4	90	0.00	29.891 
05:20	44.2	44.2	44.2	88	40.9	2	6	112	0.00	29.891 
05:25	44.2	44.2	44.2	87	40.6	1	4	112	0.00	29.891 
05:30	44.2	44.2	44.2	87	40.6	2	11	90	0.00	29.890 
05:35	44.2	44.2	44.2	87	40.6	3	7	90	0.00	29.890 
05:40	44.1	44.1	44.1	86	40.2	2	6	112	0.00	29.890 
05:45	44.1	44.1	44.1	87	40.5	2	6	90	0.00	29.892 
05:50	44.1	44.1	44.1	87	40.5	2	7	90	0.00	29.892 
05:55	44.1	44.1	44.1	87	40.5	2	6	112	0.00	29.892 
06:00	44.1	44.1	44.1	87	40.5	3	7	90	0.00	29.901 
06:05	44.1	44.1	44.1	87	40.5	2	7	112	0.00	29.901 
06:10	44.1	44.1	44.1	87	40.5	2	9	90	0.00	29.901 
06:15	44.1	44.1	44.1	87	40.5	2	5	112	0.00	29.907 
06:20	44.1	44.1	44.1	87	40.5	2	6	68	0.00	29.907 
06:25	44.1	44.1	44.1	87	40.5	2	7	90	0.00	29.907 
06:30	44.1	44.1	44.1	87	40.5	3	7	112	0.00	29.906 
06:35	44.1	44.1	44.1	87	40.5	2	6	112	0.00	29.906 
06:40	44.1	44.1	44.1	87	40.5	2	6	112	0.00	29.906 
06:45	44.1	44.1	44.1	86	40.2	2	5	112	0.00	29.906 
06:50	44.1	44.1	44.1	86	40.2	2	7	90	0.00	29.906 
06:55	44.1	44.1	44.1	86	40.2	0	5	112	0.00	29.906 
07:00	44.1	44.1	44.1	86	40.2	2	10	112	0.00	29.906 
07:05	44.1	44.1	44.1	86	40.2	3	6	90	0.00	29.906 
07:10	44.1	44.1	44.1	87	40.5	1	4	90	0.00	29.906 
07:15	44.1	44.1	44.1	87	40.5	2	6	112	0.00	29.915 
07:20	43.9	43.9	43.9	87	40.3	1	6	112	0.00	29.915 
07:25	43.9	43.9	43.9	87	40.3	2	6	112	0.00	29.915 
07:30	43.9	43.9	43.9	88	40.6	2	6	112	0.00	29.919 
07:35	43.9	43.9	43.9	88	40.6	2	5	112	0.00	29.919 
07:40	43.9	43.9	43.9	88	40.6	3	8	112	0.00	29.919 
07:45	43.9	43.9	43.9	88	40.6	0	0	---	0.00	29.926 
07:50	43.8	43.8	43.8	88	40.5	2	7	112	0.00	29.926 
07:55	43.8	43.8	43.8	87	40.2	2	9	112	0.00	29.926 
08:00	43.8	43.8	43.8	88	40.5	2	8	112	0.00	29.927 
08:05	43.8	43.8	43.8	88	40.5	1	6	90	0.00	29.927 
08:10	43.8	43.8	43.8	88	40.5	3	7	90	0.00	29.927 
08:15	43.8	43.8	43.8	87	40.2	3	6	112	0.00	29.935 
08:20	43.6	43.6	43.6	87	40.0	3	6	112	0.00	29.935 
08:25	43.6	41.5	43.6	87	40.0	4	10	90	0.00	29.935 
08:30	43.6	43.6	43.6	87	40.0	2	6	112	0.00	29.928 
08:35	43.6	43.6	43.6	87	40.0	2	4	112	0.00	29.928 
08:40	43.6	43.6	43.6	86	39.7	3	9	112	0.00	29.928 
08:45	43.6	41.5	43.6	85	39.4	4	6	90	0.00	29.921 
08:50	43.6	43.6	43.6	85	39.4	3	7	90	0.00	29.921 
08:55	43.6	43.6	43.6	85	39.4	3	7	90	0.00	29.921 
09:00	43.8	43.8	43.8	84	39.3	3	7	90	0.00	29.918 
09:05	43.8	43.8	43.8	84	39.3	3	7	90	0.00	29.918 
09:10	43.8	41.7	43.8	84	39.3	4	11	112	0.00	29.918 
09:15	43.8	41.7	43.8	84	39.3	4	11	90	0.00	29.917 
09:20	43.9	41.8	43.9	83	39.1	4	9	90	0.00	29.917 
09:25	43.9	43.9	43.9	83	39.1	3	7	90	0.00	29.917 
09:30	43.9	41.8	43.9	83	39.1	4	9	112	0.00	29.916 
09:35	44.1	44.1	44.1	82	39.0	3	6	90	0.00	29.916 
09:40	44.1	44.1	44.1	81	38.6	3	8	90	0.00	29.916 
09:45	44.3	44.3	44.3	81	38.8	2	6	112	0.00	29.914 
09:50	44.5	44.5	44.5	81	39.0	3	9	112	0.00	29.914 
09:55	44.5	44.5	44.5	80	38.7	3	9	90	0.00	29.914 
10:00	44.5	42.5	44.5	80	38.7	4	10	90	0.00	29.905 
10:05	44.6	44.6	44.6	79	38.5	2	6	90	0.00	29.905 
10:10	44.9	44.9	44.9	80	39.1	2	6	112	0.00	29.905 
10:15	45.1	43.2	45.1	79	39.0	4	12	90	0.00	29.896 
10:20	45.1	43.2	45.1	79	39.0	4	6	112	0.00	29.896 
10:25	45.5	45.5	45.5	79	39.4	2	6	90	0.00	29.896 
10:30	45.8	45.8	45.8	78	39.3	2	11	90	0.00	29.881 
10:35	45.8	45.8	45.8	77	39.0	2	6	112	0.00	29.881 
10:40	45.8	45.8	45.8	77	39.0	3	8	112	0.00	29.881 
10:45	46.0	46.0	46.0	77	39.2	1	5	90	0.00	29.885 
10:50	46.2	46.2	46.2	77	39.4	2	6	90	0.00	29.885 
10:55	46.2	44.5	46.2	77	39.4	4	9	112	0.00	29.885 
11:00	46.4	46.4	46.4	76	39.3	3	9	112	0.00	29.882 
11:05	46.8	46.8	46.8	76	39.6	2	7	112	0.00	29.882 
11:10	47.3	47.3	47.3	75	39.8	3	9	112	0.00	29.882 
11:15	47.3	45.8	47.3	75	39.8	4	11	90	0.00	29.883 
11:20	47.3	45.8	47.3	75	39.8	4	10	112	0.00	29.883 
11:25	47.4	47.4	47.4	75	39.9	2	7	90	0.00	29.883 
11:30	47.6	47.6	47.6	76	40.4	2	5	90	0.00	29.899 
11:35	47.7	47.7	47.7	75	40.2	3	9	90	0.00	29.899 
11:40	47.9	47.9	47.9	75	40.4	3	6	112	0.00	29.899 
11:45	48.2	48.2	48.2	75	40.7	3	5	112	0.00	29.909 
11:50	48.3	46.9	48.3	74	40.4	4	7	90	0.00	29.909 
11:55	48.6	48.6	48.6	74	40.7	3	7	112	0.00	29.909 
12:00	48.9	48.9	48.9	74	41.0	2	5	90	0.00	29.911 
12:05	49.2	49.2	49.2	74	41.3	2	6	90	0.00	29.911 
12:10	49.2	49.2	49.2	74	41.3	3	7	112	0.00	29.911 
12:15	49.1	49.1	49.1	73	40.8	3	7	90	0.00	29.916 
12:20	49.1	49.1	49.1	74	41.2	3	6	90	0.00	29.916 
12:25	49.4	49.4	49.4	73	41.1	2	5	112	0.00	29.916 
12:30	49.4	49.4	49.4	72	40.8	2	9	112	0.00	29.914 
12:35	49.6	49.6	49.6	73	41.3	3	6	90	0.00	29.914 
12:40	49.8	49.8	49.8	72	41.1	2	5	90	0.00	29.914 
12:45	50.2	50.2	50.2	72	41.5	3	6	90	0.00	29.903 
12:50	50.7	50.7	50.7	70	41.3	4	9	90	0.00	29.903 
12:55	51.1	51.1	51.1	71	42.0	3	7	90	0.00	29.903 
13:00	51.1	51.1	51.1	69	41.3	3	7	90	0.00	29.905 
13:05	51.0	51.0	51.0	71	41.9	2	6	90	0.00	29.905 
13:10	51.1	51.1	51.1	70	41.7	0	2	90	0.00	29.905 
13:15	51.6	51.6	51.6	71	42.5	2	5	112	0.00	29.888 
13:20	51.9	51.9	51.9	70	42.4	3	9	90	0.00	29.888 
13:25	52.2	52.2	52.2	70	42.7	3	10	112	0.00	29.888 
13:30	52.3	52.3	52.3	69	42.4	1	13	112	0.00	29.886 
13:35	52.6	52.6	52.6	70	43.1	2	13	112	0.00	29.886 
13:40	53.2	53.2	53.2	68	42.9	2	7	90	0.00	29.886 
13:45	53.8	53.8	53.8	68	43.5	2	6	135	0.00	29.878 
13:50	54.2	54.2	54.2	67	43.5	3	8	135	0.00	29.878 
13:55	54.4	54.4	54.4	67	43.7	3	9	112	0.00	29.878 
14:00	54.8	54.8	54.8	65	43.3	3	10	112	0.00	29.877 
14:05	55.1	55.1	55.1	65	43.5	3	9	90	0.00	29.877 
14:10	55.4	55.4	55.4	64	43.4	1	7	112	0.00	29.877 
14:15	55.9	55.9	55.9	64	43.9	3	6	112	0.00	29.876 
14:20	56.3	56.3	56.3	63	43.9	3	8	90	0.00	29.876 
14:25	56.3	56.3	56.3	61	43.0	3	8	90	0.00	29.876 
14:30	56.2	56.2	56.2	62	43.4	3	11	112	0.00	29.872 
14:35	56.9	56.9	56.9	64	44.8	1	5	68	0.00	29.872 
14:40	57.6	57.6	57.6	58	42.9	3	8	112	0.00	29.872 
14:45	57.8	57.8	57.8	59	43.6	2	11	112	0.00	29.867 
14:50	57.6	57.6	57.6	60	43.8	3	10	112	0.00	29.867 
14:55	57.5	57.5	57.5	60	43.7	1	4	45	0.00	29.867 
15:00	57.3	57.3	57.3	58	42.6	4	10	112	0.00	29.861 
15:05	57.3	57.3	57.3	57	42.2	3	10	90	0.00	29.861 
15:10	57.5	57.5	57.5	58	42.8	4	13	90	0.00	29.861 
15:15	57.8	57.8	57.8	56	42.2	2	8	90	0.00	29.861 
15:20	58.1	58.1	58.1	54	41.5	5	12	112	0.00	29.861 
15:25	58.1	58.1	58.1	54	41.5	4	12	112	0.00	29.861 
15:30	58.4	58.4	58.4	55	42.3	3	9	112	0.00	29.863 
15:35	58.7	58.7	58.7	52	41.1	4	10	112	0.00	29.863 
15:40	58.6	58.6	58.6	52	41.0	5	13	90	0.00	29.863 
15:45	58.6	58.6	58.6	53	41.5	3	10	90	0.00	29.852 
15:50	58.6	58.6	58.6	52	41.0	3	10	112	0.00	29.852 
15:55	58.3	58.3	58.3	51	40.3	6	11	112	0.00	29.852 
16:00	57.8	57.8	57.8	52	40.3	4	10	112	0.00	29.859 
16:05	57.6	57.6	57.6	51	39.6	4	13	112	0.00	29.859 
16:10	57.6	57.6	57.6	51	39.6	3	7	112	0.00	29.859 
16:15	57.5	57.5	57.5	51	39.5	4	10	90	0.00	29.881 
16:20	57.6	57.6	57.6	52	40.1	3	5	90	0.00	29.881 
16:25	57.8	57.8	57.8	52	40.3	4	10	90	0.00	29.881 
16:30	58.0	58.0	58.0	51	40.0	3	9	90	0.00	29.892 
16:35	58.1	58.1	58.1	51	40.1	3	6	90	0.00	29.892 
16:40	58.0	58.0	58.0	48	38.4	3	11	112	0.00	29.892 
16:45	57.5	57.5	57.5	50	39.0	5	9	112	0.00	29.895 
16:50	57.3	57.3	57.3	50	38.8	4	10	90	0.00	29.895 
16:55	57.3	57.3	57.3	50	38.8	3	9	90	0.00	29.895 
17:00	57.3	57.3	57.3	50	38.8	2	6	112	0.00	29.896 
17:05	57.0	57.0	57.0	49	38.0	4	10	112	0.00	29.896 
17:10	56.9	56.9	56.9	49	37.9	3	10	112	0.00	29.896 
17:15	56.9	56.9	56.9	49	37.9	3	10	112	0.00	29.894 
17:20	56.7	56.7	56.7	48	37.2	4	10	112	0.00	29.894 
17:25	56.6	56.6	56.6	49	37.7	3	9	112	0.00	29.894 
17:30	56.6	56.6	56.6	49	37.7	4	10	112	0.00	29.886 
17:35	56.5	56.5	56.5	47	36.5	3	10	90	0.00	29.886 
17:40	56.5	56.5	56.5	47	36.5	3	10	90	0.00	29.886 
17:45	56.3	56.3	56.3	47	36.3	3	7	90	0.00	29.895 
17:50	56.3	56.3	56.3	47	36.3	3	7	90	0.00	29.895 
17:55	56.2	56.2	56.2	45	35.1	5	10	90	0.00	29.895 
18:00	56.0	56.0	56.0	46	35.5	4	12	112	0.00	29.894 
18:05	56.0	56.0	56.0	46	35.5	3	6	112	0.00	29.894 
18:10	55.9	55.9	55.9	46	35.4	3	6	112	0.00	29.894 
18:15	55.7	55.7	55.7	46	35.2	3	6	90	0.00	29.895 
18:20	55.6	55.6	55.6	45	34.6	3	9	90	0.00	29.895 
18:25	55.6	55.6	55.6	45	34.6	2	6	112	0.00	29.895 
18:30	55.6	55.6	55.6	45	34.6	3	11	112	0.00	29.883 
18:35	55.4	55.4	55.4	44	33.9	3	9	112	0.00	29.883 
18:40	55.3	55.3	55.3	43	33.2	4	10	90	0.00	29.883 
18:45	55.3	55.3	55.3	43	33.2	3	7	112	0.00	29.877 
18:50	55.3	55.3	55.3	43	33.2	3	10	90	0.00	29.877 
18:55	55.1	55.1	55.1	43	33.0	2	11	90	0.00	29.877 
19:00	55.0	55.0	55.0	41	31.7	5	11	90	0.00	29.864 
19:05	55.0	55.0	55.0	42	32.3	3	13	90	0.00	29.864 
19:10	54.8	54.8	54.8	40	30.9	4	12	112	0.00	29.864 
19:15	54.7	54.7	54.7	39	30.2	4	10	112	0.00	29.854 
19:20	54.4	54.4	54.4	39	30.0	4	15	112	0.00	29.854 
19:25	54.4	54.4	54.4	39	30.0	3	9	112	0.00	29.854 
19:30	54.2	54.2	54.2	40	30.4	4	11	90	0.00	29.851 
19:35	54.1	54.1	54.1	40	30.3	3	7	90	0.00	29.851 
19:40	53.9	53.9	53.9	39	29.5	4	11	112	0.00	29.851 
19:45	53.8	53.8	53.8	37	28.1	5	11	112	0.00	29.837 
19:50	53.6	53.6	53.6	36	27.3	5	12	112	0.00	29.837 
19:55	53.5	53.5	53.5	37	27.9	5	13	112	0.00	29.837 
20:00	53.3	53.3	53.3	36	27.0	5	11	90	0.00	29.818 
20:05	53.2	53.2	53.2	37	27.6	3	10	90	0.00	29.818 
20:10	53.1	53.1	53.1	37	27.5	4	14	112	0.00	29.818 
20:15	52.9	52.9	52.9	37	27.3	6	14	90	0.00	29.808 
20:20	52.9	52.9	52.9	36	26.7	4	13	90	0.00	29.808 
20:25	52.8	52.8	52.8	36	26.6	6	13	112	0.00	29.808 
20:30	52.6	52.6	52.6	36	26.4	5	12	112	0.00	29.814 
20:35	52.5	52.5	52.5	36	26.3	4	11	90	0.00	29.814 
20:40	52.3	52.3	52.3	37	26.8	2	6	90	0.00	29.814 
20:45	52.3	52.3	52.3	35	25.5	3	9	90	0.00	29.834 
20:50	52.3	52.3	52.3	35	25.5	3	8	90	0.00	29.834 
20:55	52.2	52.2	52.2	36	26.1	2	6	90	0.00	29.834 
21:00	52.2	52.2	52.2	36	26.1	3	7	90	0.00	29.846 
21:05	52.3	52.3	52.3	37	26.8	2	6	90	0.00	29.846 
21:10	52.3	52.3	52.3	36	26.1	4	9	112	0.00	29.846 
21:15	52.3	52.3	52.3	36	26.1	4	8	90	0.00	29.853 
21:20	52.3	52.3	52.3	37	26.8	6	13	112	0.00	29.853 
21:25	52.3	52.3	52.3	38	27.5	4	9	112	0.00	29.853 
21:30	52.2	52.2	52.2	38	27.4	3	9	90	0.00	29.867 
21:35	52.2	52.2	52.2	39	28.0	2	6	90	0.00	29.867 
21:40	52.2	52.2	52.2	39	28.0	3	10	90	0.00	29.867 
21:45	52.2	52.2	52.2	40	28.6	3	6	112	0.00	29.879 
21:50	52.2	52.2	52.2	40	28.6	4	10	112	0.00	29.879 
21:55	52.0	52.0	52.0	42	29.6	4	7	90	0.00	29.879 
22:00	52.0	52.0	52.0	43	30.2	3	7	90	0.00	29.876 
22:05	51.9	51.9	51.9	43	30.1	4	10	90	0.00	29.876 
22:10	51.9	51.9	51.9	44	30.7	2	6	112	0.00	29.876 
22:15	51.7	51.7	51.7	46	31.6	2	6	112	0.00	29.889 
22:20	51.6	51.6	51.6	48	32.6	2	6	112	0.00	29.889 
22:25	51.3	51.3	51.3	52	34.3	2	6	90	0.00	29.889 
22:30	50.7	50.7	50.7	56	35.6	2	6	112	0.00	29.885 
22:35	49.9	49.9	49.9	58	35.7	2	6	112	0.00	29.885 
22:40	49.4	49.4	49.4	61	36.5	3	5	112	0.00	29.885 
22:45	49.1	49.1	49.1	62	36.6	2	5	68	0.01	29.877 
22:50	48.8	48.8	48.8	64	37.2	2	5	90	0.00	29.877 
22:55	48.5	48.5	48.5	65	37.3	1	4	68	0.00	29.877 
23:00	48.5	48.5	48.5	63	36.5	3	6	68	0.00	29.871 
23:05	48.5	48.5	48.5	64	36.9	2	5	112	0.00	29.871 
23:10	48.5	48.5	48.5	65	37.3	2	5	90	0.00	29.871 
23:15	48.3	48.3	48.3	65	37.1	2	5	90	0.00	29.867 
23:20	48.2	48.2	48.2	64	36.6	2	5	90	0.00	29.867 
23:25	48.3	48.3	48.3	62	35.9	3	6	112	0.00	29.867 
23:30	48.5	48.5	48.5	62	36.1	2	6	90	0.00	29.870 
23:35	48.5	48.5	48.5	61	35.7	2	5	90	0.00	29.870 
23:40	48.6	48.6	48.6	61	35.8	2	6	90	0.00	29.870 
23:45	48.6	48.6	48.6	60	35.3	2	5	112	0.00	29.880 
23:50	48.8	48.8	48.8	61	36.0	1	3	112	0.00	29.880 
23:55	48.8	48.8	48.8	62	36.4	2	5	112	0.00	29.880 

CoCoRaHS
IN-AL-39
A2 Web Hosting
Creative Commons License
GoDaddy
search engine by freefind advanced

loaded 2018-11-13 22:30:38 • last modified 2010-11-18 10:43:29
Privacy PolicyDisclaimer
• wx.awcolley.com is powered by PmWiki v.2002016 •
• all content (unless otherwise noted) © 2018 A W Colley